Time;durP1;ratioP1;P1;durP2;ratioP2;P2;SDS_P1;SDS_P2;PMS_P1;PMS_P2;Temp;Humidity;BMP_temperature;BMP_pressure;BME280_temperature;BME280_humidity;BME280_pressure;Samples;Min_cycle;Max_cycle;Signal;HPM_P1;HPM_P2
2022/06/27 00:01:36;;;;;;;4.82;4.43;;;19.70;99.90;;;;;;4324931;28;10000543;-73
2022/06/27 00:04:01;;;;;;;4.70;4.30;;;19.70;99.90;;;;;;5022619;28;20474;-73
2022/06/27 00:06:27;;;;;;;4.75;4.35;;;19.70;99.90;;;;;;5021212;28;20131;-73
2022/06/27 00:08:52;;;;;;;4.72;4.30;;;19.80;99.90;;;;;;5017838;28;20119;-73
2022/06/27 00:11:19;;;;;;;5.88;4.80;;;19.80;99.90;;;;;;5029307;28;20179;-73
2022/06/27 00:13:45;;;;;;;4.40;4.00;;;19.80;99.90;;;;;;5022757;28;20108;-73
2022/06/27 00:16:11;;;;;;;4.43;4.03;;;19.80;99.90;;;;;;5015769;28;20041;-74
2022/06/27 00:18:37;;;;;;;6.63;4.70;;;19.70;99.90;;;;;;5022668;28;20032;-73
2022/06/27 00:21:03;;;;;;;4.53;4.18;;;19.70;99.90;;;;;;5020943;28;20029;-73
2022/06/27 00:23:29;;;;;;;4.80;4.40;;;19.80;99.90;;;;;;5023046;28;20030;-73
2022/06/27 00:25:54;;;;;;;4.82;4.43;;;19.70;99.90;;;;;;5023970;28;20043;-73
2022/06/27 00:28:20;;;;;;;7.03;4.40;;;19.70;99.90;;;;;;5015456;28;20112;-73
2022/06/27 00:30:46;;;;;;;4.55;4.15;;;19.70;99.90;;;;;;5024943;28;20397;-73
2022/06/27 00:33:12;;;;;;;4.35;3.95;;;19.70;99.90;;;;;;5020745;28;20049;-73
2022/06/27 00:35:38;;;;;;;4.68;4.18;;;19.70;99.90;;;;;;5019819;28;20028;-73
2022/06/27 00:38:03;;;;;;;4.97;4.47;;;19.60;99.90;;;;;;5022500;28;20014;-73
2022/06/27 00:40:29;;;;;;;7.93;4.60;;;19.60;99.90;;;;;;5023512;28;20030;-72
2022/06/27 00:42:55;;;;;;;4.72;4.22;;;19.60;99.90;;;;;;5034176;28;20022;-73
2022/06/27 00:45:20;;;;;;;5.95;4.10;;;19.70;99.90;;;;;;5022147;28;20044;-72
2022/06/27 00:47:46;;;;;;;8.07;4.28;;;19.60;99.90;;;;;;5028455;28;20039;-73
2022/06/27 00:50:11;;;;;;;6.85;4.57;;;19.60;99.90;;;;;;5019073;28;20510;-73
2022/06/27 00:52:37;;;;;;;5.90;4.10;;;19.50;99.90;;;;;;5017612;28;20025;-73
2022/06/27 00:55:05;;;;;;;5.75;4.90;;;19.40;99.90;;;;;;5029389;28;20450;-73
2022/06/27 00:57:31;;;;;;;9.23;5.55;;;19.40;99.90;;;;;;5027024;28;20033;-73
2022/06/27 00:59:57;;;;;;;7.10;5.40;;;19.30;99.90;;;;;;5025791;28;20029;-73
2022/06/27 01:02:22;;;;;;;7.43;6.05;;;19.30;99.90;;;;;;5021698;28;20018;-73
2022/06/27 01:04:48;;;;;;;7.13;5.90;;;19.20;99.90;;;;;;5024066;28;20037;-73
2022/06/27 01:07:14;;;;;;;7.55;5.90;;;19.20;99.90;;;;;;5031136;28;20043;-73
2022/06/27 01:09:41;;;;;;;7.13;6.43;;;19.20;99.90;;;;;;5022714;28;20022;-73
2022/06/27 01:12:07;;;;;;;9.65;5.50;;;19.20;99.90;;;;;;5017883;28;20045;-73
2022/06/27 01:14:33;;;;;;;8.18;5.80;;;19.20;99.90;;;;;;5027048;28;20061;-73
2022/06/27 01:16:59;;;;;;;5.75;5.20;;;19.20;99.90;;;;;;5032840;28;20063;-73
2022/06/27 01:19:25;;;;;;;5.15;4.65;;;19.20;99.90;;;;;;5019704;28;20108;-73
2022/06/27 01:21:54;;;;;;;5.82;4.82;;;19.10;99.90;;;;;;5015247;28;20474;-73
2022/06/27 01:24:21;;;;;;;6.93;5.60;;;19.10;99.90;;;;;;5026601;28;20029;-73
2022/06/27 01:26:47;;;;;;;5.35;4.85;;;19.00;99.90;;;;;;5012809;28;20037;-73
2022/06/27 01:29:13;;;;;;;6.40;4.55;;;19.00;99.90;;;;;;5014978;28;20432;-73
2022/06/27 01:31:40;;;;;;;7.03;4.70;;;19.00;99.90;;;;;;5018371;28;20056;-73
2022/06/27 01:34:07;;;;;;;6.07;4.68;;;19.00;99.90;;;;;;5021937;28;20050;-73
2022/06/27 01:36:42;;;;;;;5.55;4.50;;;19.00;99.90;;;;;;5012169;28;20025;-74
2022/06/27 01:39:17;;;;;;;5.25;4.75;;;18.90;99.90;;;;;;5017446;28;20169;-73
2022/06/27 01:41:45;;;;;;;5.03;4.63;;;18.90;99.90;;;;;;5011804;28;20033;-73
2022/06/27 01:44:12;;;;;;;5.45;4.95;;;18.90;99.90;;;;;;5014429;28;20026;-72
2022/06/27 01:46:50;;;;;;;7.22;4.65;;;18.90;99.90;;;;;;5027828;28;20032;-73
2022/06/27 01:49:17;;;;;;;7.28;5.10;;;18.90;99.90;;;;;;5023883;28;20026;-73
2022/06/27 01:51:47;;;;;;;4.82;4.32;;;19.00;99.90;;;;;;5026670;28;20025;-73
2022/06/27 01:54:15;;;;;;;4.00;3.60;;;18.90;99.90;;;;;;5025486;28;20229;-73
2022/06/27 01:56:44;;;;;;;4.75;3.95;;;18.90;99.90;;;;;;5032113;28;20109;-73
2022/06/27 01:59:10;;;;;;;6.47;4.93;;;18.80;99.90;;;;;;5026090;28;20424;-73
2022/06/27 02:01:38;;;;;;;5.43;4.60;;;18.90;99.90;;;;;;5020629;28;20509;-73
2022/06/27 02:04:05;;;;;;;5.82;4.45;;;18.90;99.90;;;;;;5021838;28;20030;-73
2022/06/27 02:06:31;;;;;;;4.40;4.00;;;18.90;99.90;;;;;;5024310;28;20095;-73
2022/06/27 02:08:58;;;;;;;5.20;4.70;;;18.90;99.90;;;;;;5023369;28;20702;-73
2022/06/27 02:11:25;;;;;;;5.07;4.05;;;18.80;99.90;;;;;;5020049;28;20575;-73
2022/06/27 02:13:50;;;;;;;4.75;4.20;;;18.80;99.90;;;;;;5025760;28;20508;-73
2022/06/27 02:16:18;;;;;;;5.85;4.40;;;18.80;99.90;;;;;;5023150;28;20037;-73
2022/06/27 02:18:44;;;;;;;4.30;3.90;;;18.70;99.90;;;;;;5022277;28;20540;-74
2022/06/27 02:21:11;;;;;;;4.07;3.67;;;18.70;99.90;;;;;;5020540;28;20040;-73
2022/06/27 02:23:38;;;;;;;6.95;6.13;;;18.70;99.90;;;;;;5017321;28;20029;-73
2022/06/27 02:26:07;;;;;;;6.88;5.50;;;18.60;99.90;;;;;;5018792;28;20133;-73
2022/06/27 02:28:33;;;;;;;4.72;4.32;;;18.70;99.90;;;;;;5025850;28;20029;-73
2022/06/27 02:31:00;;;;;;;5.63;4.38;;;18.70;99.90;;;;;;5019139;28;20096;-73
2022/06/27 02:33:33;;;;;;;6.05;5.00;;;18.60;99.90;;;;;;5024019;28;20528;-73
2022/06/27 02:36:02;;;;;;;5.38;4.88;;;18.70;99.90;;;;;;5020987;28;20132;-73
2022/06/27 02:38:28;;;;;;;6.18;5.25;;;18.70;99.90;;;;;;5022146;28;20441;-73
2022/06/27 02:40:57;;;;;;;5.47;4.60;;;18.60;99.90;;;;;;5022907;28;20466;-73
2022/06/27 02:43:26;;;;;;;5.97;4.65;;;18.80;99.90;;;;;;5017520;28;20774;-73
2022/06/27 02:45:53;;;;;;;5.47;4.50;;;18.80;99.90;;;;;;5023843;28;20309;-73
2022/06/27 02:48:21;;;;;;;5.18;4.25;;;18.80;99.90;;;;;;5020994;28;20432;-73
2022/06/27 02:50:51;;;;;;;7.57;5.20;;;18.80;99.90;;;;;;5019503;28;20547;-73
2022/06/27 02:53:18;;;;;;;8.02;4.55;;;18.90;99.90;;;;;;5016837;28;20053;-73
2022/06/27 02:55:48;;;;;;;5.65;4.70;;;19.00;99.90;;;;;;5019177;28;20033;-74
2022/06/27 02:58:46;;;;;;;6.50;4.80;;;19.00;99.90;;;;;;5022914;28;20028;-72
2022/06/27 03:01:13;;;;;;;8.68;5.07;;;19.00;99.90;;;;;;5015344;28;20712;-73
2022/06/27 03:03:41;;;;;;;10.30;5.45;;;19.00;99.90;;;;;;5019994;28;20039;-73
2022/06/27 03:06:07;;;;;;;9.18;5.60;;;19.00;99.90;;;;;;5021627;28;20572;-73
2022/06/27 03:08:36;;;;;;;6.22;5.63;;;18.90;99.90;;;;;;5017816;28;20052;-73
2022/06/27 03:11:02;;;;;;;6.70;5.50;;;18.90;99.90;;;;;;5021266;28;20029;-73
2022/06/27 03:13:27;;;;;;;7.32;5.45;;;18.80;99.90;;;;;;5024887;28;20036;-73
2022/06/27 03:15:53;;;;;;;7.95;5.30;;;18.80;99.90;;;;;;5021501;28;20123;-73
2022/06/27 03:18:18;;;;;;;5.65;5.15;;;18.70;99.90;;;;;;5020040;28;20052;-73
2022/06/27 03:20:44;;;;;;;8.07;5.55;;;18.80;99.90;;;;;;5021828;28;20409;-73
2022/06/27 03:23:10;;;;;;;5.95;5.40;;;18.70;99.90;;;;;;5020522;28;20355;-73
2022/06/27 03:25:35;;;;;;;6.07;5.35;;;18.60;99.90;;;;;;5018169;28;20037;-73
2022/06/27 03:28:01;;;;;;;6.88;5.75;;;18.60;99.90;;;;;;5021625;28;20036;-73
2022/06/27 03:30:27;;;;;;;8.00;5.75;;;18.60;99.90;;;;;;5021084;28;20044;-73
2022/06/27 03:32:53;;;;;;;7.18;5.63;;;18.60;99.90;;;;;;5020032;28;20132;-73
2022/06/27 03:35:18;;;;;;;7.03;5.80;;;18.70;99.90;;;;;;5020569;28;20042;-73
2022/06/27 03:37:44;;;;;;;7.60;5.93;;;18.60;99.90;;;;;;5019267;28;20041;-73
2022/06/27 03:40:10;;;;;;;6.10;5.50;;;18.70;99.90;;;;;;5019735;28;20124;-73
2022/06/27 03:42:36;;;;;;;5.38;4.85;;;18.60;99.90;;;;;;5024035;28;20056;-73
2022/06/27 03:45:01;;;;;;;5.32;4.80;;;18.70;99.90;;;;;;5022016;28;20029;-73
2022/06/27 03:47:27;;;;;;;6.57;5.97;;;18.50;99.90;;;;;;5021856;28;20038;-73
2022/06/27 03:50:01;;;;;;;6.47;5.18;;;18.50;99.90;;;;;;5019095;28;20067;-74
2022/06/27 03:52:30;;;;;;;5.45;4.95;;;18.40;99.90;;;;;;5011365;28;20033;-73
2022/06/27 03:54:56;;;;;;;6.45;4.65;;;18.40;99.90;;;;;;5014207;28;20026;-73
2022/06/27 03:57:22;;;;;;;5.78;4.78;;;18.50;99.90;;;;;;5024053;28;20079;-74
2022/06/27 03:59:47;;;;;;;5.25;4.75;;;18.50;99.90;;;;;;5022790;28;20127;-73
2022/06/27 04:02:16;;;;;;;6.40;4.75;;;18.50;99.90;;;;;;5021007;28;20021;-73
2022/06/27 04:04:41;;;;;;;5.63;4.60;;;18.60;99.90;;;;;;5012348;28;20037;-74
2022/06/27 04:07:07;;;;;;;5.93;4.63;;;18.50;99.90;;;;;;5011542;28;20055;-73
2022/06/27 04:09:33;;;;;;;5.53;4.90;;;18.50;99.90;;;;;;5014701;28;20037;-73
2022/06/27 04:11:58;;;;;;;10.43;4.75;;;18.50;99.90;;;;;;5023119;28;20033;-73
2022/06/27 04:14:24;;;;;;;6.35;4.65;;;18.40;99.90;;;;;;5018327;28;20041;-73
2022/06/27 04:16:52;;;;;;;6.65;4.75;;;18.40;99.90;;;;;;5019111;28;20029;-73
2022/06/27 04:19:17;;;;;;;5.97;4.47;;;18.40;99.90;;;;;;5024729;28;20033;-73
2022/06/27 04:21:43;;;;;;;5.25;4.75;;;18.50;99.90;;;;;;5021090;28;20034;-73
2022/06/27 04:24:09;;;;;;;6.82;5.00;;;18.50;99.90;;;;;;5024556;28;20432;-73
2022/06/27 04:26:35;;;;;;;4.82;4.43;;;18.60;99.90;;;;;;5021871;28;20052;-73
2022/06/27 04:29:00;;;;;;;6.05;5.40;;;18.60;99.90;;;;;;5025958;28;20084;-73
2022/06/27 04:31:26;;;;;;;7.40;5.55;;;18.70;99.90;;;;;;5028931;28;20022;-73
2022/06/27 04:33:52;;;;;;;6.75;5.78;;;18.70;99.90;;;;;;5024815;28;20073;-73
2022/06/27 04:36:17;;;;;;;7.93;6.28;;;18.70;99.90;;;;;;5026110;28;20037;-73
2022/06/27 04:38:43;;;;;;;10.65;6.05;;;18.80;99.90;;;;;;5030149;28;20506;-73
2022/06/27 04:41:09;;;;;;;6.85;5.53;;;18.70;99.90;;;;;;5015502;28;20416;-73
2022/06/27 04:43:34;;;;;;;7.25;6.50;;;18.70;99.90;;;;;;5021737;28;20073;-73
2022/06/27 04:46:02;;;;;;;7.72;6.43;;;18.70;99.90;;;;;;5015030;28;20040;-73
2022/06/27 04:48:29;;;;;;;9.30;6.70;;;18.70;99.90;;;;;;5021476;28;20038;-73
2022/06/27 04:50:56;;;;;;;8.38;7.18;;;18.70;99.90;;;;;;5039312;28;20497;-73
2022/06/27 04:53:22;;;;;;;7.32;6.65;;;18.70;99.90;;;;;;5028261;28;20098;-74
2022/06/27 04:55:49;;;;;;;8.80;7.90;;;18.70;99.90;;;;;;5025735;28;20033;-73
2022/06/27 04:58:15;;;;;;;8.10;6.93;;;18.70;99.90;;;;;;5028208;28;20478;-73
2022/06/27 05:00:41;;;;;;;8.20;6.82;;;18.70;99.90;;;;;;5019569;28;20041;-73
2022/06/27 05:03:07;;;;;;;8.52;6.53;;;18.80;99.90;;;;;;5017795;28;20505;-73
2022/06/27 05:05:33;;;;;;;9.48;7.70;;;18.90;99.90;;;;;;5030427;28;20104;-73
2022/06/27 05:08:01;;;;;;;9.10;6.15;;;19.00;99.90;;;;;;5032513;28;20021;-73
2022/06/27 05:10:27;;;;;;;7.18;6.45;;;19.00;99.90;;;;;;5024524;28;20887;-74
2022/06/27 05:12:53;;;;;;;7.10;6.28;;;19.00;99.90;;;;;;5020789;28;20044;-73
2022/06/27 05:15:18;;;;;;;8.05;6.05;;;19.00;99.90;;;;;;5025287;28;20063;-73
2022/06/27 05:17:44;;;;;;;6.82;6.13;;;19.00;99.90;;;;;;5027292;28;20029;-74
2022/06/27 05:20:10;;;;;;;7.28;6.47;;;19.00;99.90;;;;;;5023168;28;20061;-74
2022/06/27 05:22:36;;;;;;;11.52;6.00;;;19.10;99.90;;;;;;5024457;28;20128;-73
2022/06/27 05:25:02;;;;;;;6.68;5.50;;;19.00;99.90;;;;;;5027289;28;20883;-74
2022/06/27 05:27:28;;;;;;;7.47;5.68;;;19.10;99.90;;;;;;5019676;28;20037;-73
2022/06/27 05:29:53;;;;;;;8.75;6.05;;;19.20;99.90;;;;;;5017442;28;20751;-73
2022/06/27 05:32:19;;;;;;;8.50;6.35;;;19.30;99.90;;;;;;5022145;28;20029;-73
2022/06/27 05:34:45;;;;;;;5.90;5.40;;;19.40;99.90;;;;;;5017505;28;20045;-73
2022/06/27 05:37:11;;;;;;;7.45;5.25;;;19.50;99.90;;;;;;5019075;28;20041;-73
2022/06/27 05:39:36;;;;;;;9.13;5.50;;;19.60;99.90;;;;;;5021365;28;20560;-73
2022/06/27 05:42:03;;;;;;;9.20;5.20;;;19.80;99.90;;;;;;5027177;28;20079;-73
2022/06/27 05:44:29;;;;;;;6.05;5.32;;;19.80;99.90;;;;;;5027042;28;20108;-73
2022/06/27 05:46:58;;;;;;;5.22;4.72;;;19.90;99.90;;;;;;5009422;28;20298;-73
2022/06/27 05:49:24;;;;;;;5.18;4.68;;;20.00;99.90;;;;;;5017965;28;20076;-73
2022/06/27 05:51:52;;;;;;;5.43;4.40;;;19.90;99.90;;;;;;5026558;28;20064;-73
2022/06/27 05:54:18;;;;;;;5.38;4.75;;;20.00;99.90;;;;;;5026153;28;20030;-73
2022/06/27 05:56:44;;;;;;;5.40;4.90;;;20.10;99.90;;;;;;5011491;28;20034;-73
2022/06/27 05:59:11;;;;;;;9.00;5.20;;;20.10;99.90;;;;;;5027497;28;20474;-73
2022/06/27 06:01:37;;;;;;;4.97;4.47;;;20.10;99.90;;;;;;5022409;28;20034;-73
2022/06/27 06:04:05;;;;;;;6.97;4.60;;;20.10;99.90;;;;;;5027185;28;20025;-73
2022/06/27 06:06:30;;;;;;;6.15;4.88;;;20.30;99.90;;;;;;5028927;28;20437;-73
2022/06/27 06:08:57;;;;;;;8.27;5.18;;;20.30;99.90;;;;;;5022223;28;20116;-73
2022/06/27 06:11:23;;;;;;;5.07;4.60;;;20.40;99.90;;;;;;5022693;28;20040;-73
2022/06/27 06:13:50;;;;;;;4.90;4.50;;;20.50;99.90;;;;;;5023030;28;20053;-73
2022/06/27 06:16:19;;;;;;;5.82;4.60;;;20.60;99.90;;;;;;5027783;28;20029;-74
2022/06/27 06:18:52;;;;;;;5.75;4.82;;;20.70;99.90;;;;;;5013979;28;20095;-73
2022/06/27 06:21:22;;;;;;;5.30;4.60;;;20.80;99.90;;;;;;5025419;28;20486;-73
2022/06/27 06:23:49;;;;;;;4.63;4.15;;;21.10;99.90;;;;;;5026676;28;20048;-74
2022/06/27 06:26:16;;;;;;;5.43;3.92;;;21.30;99.90;;;;;;5014359;28;20051;-73
2022/06/27 06:28:46;;;;;;;8.07;5.18;;;21.40;99.90;;;;;;5016618;28;20127;-74
2022/06/27 06:31:15;;;;;;;6.40;4.85;;;21.60;99.90;;;;;;5013332;28;20104;-73
2022/06/27 06:33:42;;;;;;;4.57;4.03;;;21.60;99.90;;;;;;5019324;28;20079;-73
2022/06/27 06:36:09;;;;;;;4.50;4.10;;;21.70;99.90;;;;;;5015719;28;20033;-74
2022/06/27 06:38:35;;;;;;;5.32;4.22;;;22.00;99.90;;;;;;5014813;28;20025;-73
2022/06/27 06:41:01;;;;;;;4.97;4.20;;;22.20;99.90;;;;;;5015387;28;20061;-73
2022/06/27 06:43:27;;;;;;;5.53;4.50;;;22.30;99.90;;;;;;5020303;28;20135;-73
2022/06/27 06:45:53;;;;;;;5.78;4.68;;;22.50;99.90;;;;;;5018395;28;20041;-72
2022/06/27 06:48:19;;;;;;;4.60;3.95;;;22.70;99.90;;;;;;5018819;28;20037;-73
2022/06/27 06:50:45;;;;;;;7.30;4.43;;;22.90;99.90;;;;;;5018259;28;20414;-73
2022/06/27 06:53:11;;;;;;;5.32;3.88;;;23.00;99.90;;;;;;5022061;28;20040;-73
2022/06/27 06:55:36;;;;;;;5.10;3.60;;;23.20;99.90;;;;;;5018532;28;20036;-73
2022/06/27 06:58:02;;;;;;;4.55;4.15;;;23.40;99.90;;;;;;5019817;28;20132;-73
2022/06/27 07:00:28;;;;;;;4.40;3.95;;;23.60;99.90;;;;;;5022363;28;20298;-73
2022/06/27 07:02:55;;;;;;;6.90;4.10;;;;;;;;;;5023798;28;20027;-72
2022/06/27 07:05:21;;;;;;;5.80;4.78;;;24.20;99.90;;;;;;5022172;28;20030;-73
2022/06/27 07:07:51;;;;;;;4.68;4.28;;;24.30;99.90;;;;;;5030640;28;20051;-73
2022/06/27 07:10:18;;;;;;;4.82;4.00;;;24.30;99.90;;;;;;5019463;28;20037;-72
2022/06/27 07:12:44;;;;;;;5.40;4.65;;;24.50;99.90;;;;;;5021150;28;20037;-73
2022/06/27 07:15:10;;;;;;;4.00;3.60;;;24.50;99.90;;;;;;5025966;28;20104;-72
2022/06/27 07:17:45;;;;;;;5.57;4.43;;;24.60;99.90;;;;;;4664396;28;9999737;-73
2022/06/27 07:20:12;;;;;;;4.47;4.05;;;24.90;99.90;;;;;;5020291;28;20021;-73
2022/06/27 07:22:39;;;;;;;4.75;3.97;;;25.10;99.90;;;;;;5024594;28;20017;-73
2022/06/27 07:25:05;;;;;;;5.20;4.72;;;25.40;99.90;;;;;;5022980;28;20548;-73
2022/06/27 07:27:32;;;;;;;8.13;4.35;;;25.40;99.90;;;;;;5020857;28;20042;-73
2022/06/27 07:29:59;;;;;;;8.30;5.13;;;25.40;99.90;;;;;;5022364;28;20119;-73
2022/06/27 07:32:25;;;;;;;5.28;4.57;;;25.50;99.90;;;;;;5025786;28;20030;-73
2022/06/27 07:34:51;;;;;;;5.00;4.60;;;25.40;99.90;;;;;;5019677;28;20053;-74
2022/06/27 07:37:18;;;;;;;5.65;5.10;;;25.60;99.90;;;;;;5018826;28;20727;-73
2022/06/27 07:39:44;;;;;;;5.55;4.90;;;25.60;99.90;;;;;;5021423;28;20040;-73
2022/06/27 07:42:10;;;;;;;5.50;4.30;;;25.80;99.90;;;;;;5020760;28;20540;-73
2022/06/27 07:44:35;;;;;;;6.60;4.47;;;26.00;99.90;;;;;;5021723;28;20115;-73
2022/06/27 07:47:03;;;;;;;6.97;4.68;;;26.20;99.90;;;;;;5022099;28;20040;-74
2022/06/27 07:49:30;;;;;;;6.43;4.90;;;26.30;99.90;;;;;;5021609;28;20199;-73
2022/06/27 07:51:56;;;;;;;5.88;5.28;;;26.20;99.90;;;;;;5013620;28;20393;-74
2022/06/27 07:54:22;;;;;;;7.07;5.22;;;26.10;99.90;;;;;;5010864;28;20353;-73
2022/06/27 07:56:51;;;;;;;5.20;4.70;;;26.00;99.90;;;;;;5009396;28;20081;-72
2022/06/27 07:59:17;;;;;;;6.82;4.82;;;26.00;99.90;;;;;;5011706;28;20075;-73
2022/06/27 08:01:43;;;;;;;6.05;4.53;;;25.80;99.90;;;;;;5013117;28;20038;-73
2022/06/27 08:04:11;;;;;;;5.00;4.03;;;25.70;99.90;;;;;;5012276;28;20366;-73
2022/06/27 08:06:36;;;;;;;5.18;4.78;;;25.70;99.90;;;;;;5012767;28;20112;-73
2022/06/27 08:09:06;;;;;;;4.45;4.05;;;25.60;99.90;;;;;;5012407;28;20152;-72
2022/06/27 08:11:42;;;;;;;8.02;4.43;;;25.40;99.90;;;;;;5017960;28;20043;-73
2022/06/27 08:14:11;;;;;;;6.35;5.22;;;25.40;99.90;;;;;;5014470;28;20025;-72
2022/06/27 08:16:41;;;;;;;5.97;4.82;;;25.30;99.90;;;;;;5021445;28;20459;-72
2022/06/27 08:19:08;;;;;;;5.65;5.05;;;25.00;99.90;;;;;;5019666;28;20420;-73
2022/06/27 08:21:35;;;;;;;9.80;4.80;;;24.90;99.90;;;;;;5024595;28;20036;-73
2022/06/27 08:24:07;;;;;;;5.40;4.30;;;24.80;99.90;;;;;;5020365;28;20103;-73
2022/06/27 08:26:34;;;;;;;5.22;4.75;;;25.20;99.90;;;;;;5024453;28;20030;-73
2022/06/27 08:29:02;;;;;;;5.03;4.50;;;25.90;99.90;;;;;;5007842;28;20490;-73
2022/06/27 08:31:32;;;;;;;5.05;4.55;;;26.60;99.90;;;;;;5008176;28;20037;-73
2022/06/27 08:34:00;;;;;;;6.22;5.38;;;27.00;99.90;;;;;;5020896;28;20058;-73
2022/06/27 08:36:30;;;;;;;6.32;4.43;;;27.00;99.90;;;;;;5026731;28;20022;-73
2022/06/27 08:39:01;;;;;;;7.93;5.13;;;26.90;99.90;;;;;;5021672;28;20126;-73
2022/06/27 08:41:27;;;;;;;5.75;3.90;;;26.90;99.90;;;;;;5014815;28;20030;-72
2022/06/27 08:43:58;;;;;;;4.35;4.00;;;26.60;99.90;;;;;;5006226;28;20025;-73
2022/06/27 08:46:24;;;;;;;4.75;4.32;;;26.40;99.90;;;;;;5022475;28;20033;-72
2022/06/27 08:48:50;;;;;;;5.18;4.30;;;26.20;99.90;;;;;;5026237;28;20122;-73
2022/06/27 08:51:18;;;;;;;8.07;5.32;;;26.20;99.90;;;;;;5022063;28;20029;-74
2022/06/27 08:53:44;;;;;;;3.90;3.60;;;26.00;99.90;;;;;;5025288;28;20041;-73
2022/06/27 08:56:13;;;;;;;3.97;3.58;;;25.80;99.90;;;;;;5026613;28;20026;-74
2022/06/27 08:58:40;;;;;;;4.80;3.80;;;25.70;99.90;;;;;;5021098;28;20041;-74
2022/06/27 09:01:07;;;;;;;7.75;4.57;;;25.70;99.90;;;;;;5009795;28;20627;-74
2022/06/27 09:03:33;;;;;;;4.05;3.65;;;25.70;99.90;;;;;;5017959;28;20086;-73
2022/06/27 09:06:03;;;;;;;5.43;3.58;;;25.70;99.90;;;;;;5026791;28;20032;-72
2022/06/27 09:08:33;;;;;;;5.65;4.10;;;26.10;99.90;;;;;;5027185;28;20029;-73
2022/06/27 09:11:00;;;;;;;6.90;3.95;;;26.30;99.90;;;;;;5027015;28;20029;-72
2022/06/27 09:13:27;;;;;;;4.65;4.20;;;26.40;99.90;;;;;;5029012;28;20079;-72
2022/06/27 09:15:55;;;;;;;5.03;4.05;;;26.40;99.90;;;;;;5014815;28;20491;-72
2022/06/27 09:18:26;;;;;;;5.30;4.80;;;26.40;99.90;;;;;;5011815;28;20528;-72
2022/06/27 09:20:58;;;;;;;5.40;4.55;;;26.30;99.90;;;;;;5025027;28;20155;-72
2022/06/27 09:23:32;;;;;;;5.05;4.55;;;26.20;99.90;;;;;;5028971;28;20026;-73
2022/06/27 09:26:21;;;;;;;6.82;4.97;;;26.10;99.90;;;;;;5025037;28;20042;-72
2022/06/27 09:29:01;;;;;;;6.25;4.30;;;26.00;99.90;;;;;;5024582;28;20033;-73
2022/06/27 09:31:30;;;;;;;5.10;4.15;;;26.10;99.90;;;;;;5028721;28;20060;-73
2022/06/27 09:34:19;;;;;;;7.18;4.55;;;26.20;99.90;;;;;;5025291;28;20053;-72
2022/06/27 09:36:53;;;;;;;5.32;3.95;;;26.20;99.90;;;;;;5024882;28;20040;-72
2022/06/27 09:39:31;;;;;;;5.95;4.18;;;26.30;99.90;;;;;;5028046;28;20120;-71
2022/06/27 09:42:01;;;;;;;5.75;4.07;;;26.50;99.90;;;;;;5024674;28;20026;-72
2022/06/27 09:44:29;;;;;;;4.15;3.75;;;26.50;99.90;;;;;;5027367;28;20014;-73
2022/06/27 09:47:16;;;;;;;5.88;4.20;;;26.50;99.90;;;;;;5024859;28;20112;-73
2022/06/27 09:49:44;;;;;;;4.13;3.72;;;26.70;99.90;;;;;;5011673;28;20026;-73
2022/06/27 09:52:13;;;;;;;6.93;3.85;;;26.90;99.90;;;;;;5023258;28;20141;-73
2022/06/27 09:54:40;;;;;;;4.60;3.78;;;27.20;99.90;;;;;;5021380;28;20045;-73
2022/06/27 09:57:07;;;;;;;4.72;3.38;;;27.30;99.90;;;;;;5027765;28;20033;-73
2022/06/27 09:59:34;;;;;;;6.18;3.60;;;27.40;99.90;;;;;;5026160;28;20034;-74
2022/06/27 10:02:01;;;;;;;5.03;4.07;;;27.30;99.90;;;;;;5029275;28;20113;-73
2022/06/27 10:04:29;;;;;;;6.15;3.40;;;27.30;99.90;;;;;;5005726;28;20026;-73
2022/06/27 10:06:58;;;;;;;4.10;3.70;;;27.20;99.90;;;;;;5018172;28;20036;-74
2022/06/27 10:09:25;;;;;;;4.65;3.65;;;27.20;99.90;;;;;;5023653;28;20092;-74
2022/06/27 10:12:28;;;;;;;4.85;3.70;;;27.20;99.90;;;;;;5022679;28;20091;-74
2022/06/27 10:15:14;;;;;;;5.15;3.90;;;27.20;99.90;;;;;;5019145;28;20441;-74
2022/06/27 10:17:43;;;;;;;7.45;3.80;;;27.10;99.90;;;;;;5017764;28;20482;-73
2022/06/27 10:20:30;;;;;;;5.22;3.65;;;27.10;99.90;;;;;;5027058;28;20148;-73
2022/06/27 10:23:14;;;;;;;7.68;3.63;;;27.00;99.90;;;;;;5019130;28;20025;-73
2022/06/27 10:25:42;;;;;;;4.38;3.97;;;27.00;99.90;;;;;;5015065;28;20033;-73
2022/06/27 10:28:08;;;;;;;4.32;3.85;;;27.20;99.90;;;;;;5024630;28;20098;-72
2022/06/27 10:30:55;;;;;;;4.70;3.53;;;27.50;99.90;;;;;;5026533;28;20041;-73
2022/06/27 10:33:21;;;;;;;5.85;3.35;;;27.70;99.90;;;;;;5026547;28;20132;-73
2022/06/27 10:35:53;;;;;;;4.18;3.42;;;27.80;99.90;;;;;;5013896;28;20048;-73
2022/06/27 10:38:22;;;;;;;4.60;3.08;;;28.00;99.90;;;;;;5023158;28;20374;-73
2022/06/27 10:40:48;;;;;;;5.15;3.25;;;28.00;99.90;;;;;;5022220;28;20036;-73
2022/06/27 10:43:35;;;;;;;3.78;3.10;;;28.10;99.90;;;;;;5024183;28;20385;-74
2022/06/27 10:46:10;;;;;;;3.40;3.17;;;28.50;99.90;;;;;;5024004;28;20072;-74
2022/06/27 10:48:39;;;;;;;3.88;3.15;;;28.80;99.90;;;;;;5028520;28;20108;-74
2022/06/27 10:51:21;;;;;;;8.65;3.50;;;28.90;98.10;;;;;;5021635;28;20029;-74
2022/06/27 10:54:07;;;;;;;3.63;3.30;;;29.00;97.60;;;;;;5023544;28;20501;-74
2022/06/27 10:56:49;;;;;;;3.58;3.15;;;29.10;97.80;;;;;;5022424;28;20045;-74
2022/06/27 10:59:15;;;;;;;3.72;3.20;;;28.80;97.90;;;;;;5022471;28;20436;-73
2022/06/27 11:01:50;;;;;;;5.35;2.97;;;28.60;97.60;;;;;;5022152;28;20026;-74
2022/06/27 11:04:30;;;;;;;3.17;2.90;;;28.40;97.60;;;;;;5025286;28;20382;-75
2022/06/27 11:07:03;;;;;;;3.28;2.97;;;28.10;98.30;;;;;;5022956;28;20032;-74
2022/06/27 11:09:40;;;;;;;3.65;3.17;;;27.90;99.30;;;;;;5023934;28;20446;-76
2022/06/27 11:12:07;;;;;;;3.15;2.95;;;27.80;99.70;;;;;;5014279;28;20058;-76
2022/06/27 11:14:57;;;;;;;4.93;2.85;;;27.70;99.50;;;;;;5020692;28;20033;-76
2022/06/27 11:17:38;;;;;;;5.18;2.63;;;27.60;99.50;;;;;;5021381;28;21653;-76
2022/06/27 11:20:26;;;;;;;3.13;2.70;;;27.50;99.90;;;;;;5026229;28;20064;-76
2022/06/27 11:22:56;;;;;;;4.25;3.25;;;27.40;99.90;;;;;;5017448;28;20034;-76
2022/06/27 11:25:24;;;;;;;4.65;3.22;;;27.40;99.90;;;;;;5021968;28;20505;-76
2022/06/27 11:31:57;;;;;;;3.40;3.10;;;27.40;99.90;;;;;;5024549;28;20651;-76
2022/06/27 11:33:35;;;;;;;3.00;2.78;;;27.50;99.90;;;;;;5020955;28;20060;-76
2022/06/27 11:36:02;;;;;;;3.75;3.42;;;27.50;99.90;;;;;;5021819;28;20412;-76
2022/06/27 11:38:31;;;;;;;4.47;3.00;;;27.50;99.90;;;;;;5023502;28;20533;-76
2022/06/27 11:41:07;;;;;;;3.35;3.05;;;27.50;99.90;;;;;;5021187;28;20028;-76
2022/06/27 11:44:07;;;;;;;2.90;2.70;;;27.40;99.70;;;;;;5024157;28;20029;-76
2022/06/27 11:46:49;;;;;;;2.95;2.75;;;27.40;99.90;;;;;;5022751;28;20033;-76
2022/06/27 11:49:28;;;;;;;3.60;3.17;;;27.50;99.90;;;;;;5024372;28;20496;-75
2022/06/27 11:52:02;;;;;;;5.00;2.90;;;27.90;99.90;;;;;;5021250;28;20029;-76
2022/06/27 11:54:41;;;;;;;3.25;2.50;;;28.40;99.70;;;;;;5019275;28;20037;-76
2022/06/27 11:57:27;;;;;;;6.25;2.45;;;28.90;97.60;;;;;;5026016;28;20098;-76
2022/06/27 11:59:56;;;;;;;3.80;2.30;;;29.10;97.00;;;;;;5018139;28;20022;-76
2022/06/27 12:02:34;;;;;;;1.95;1.85;;;28.90;94.70;;;;;;5025770;28;20098;-75
2022/06/27 12:05:09;;;;;;;2.95;1.98;;;28.80;95.40;;;;;;5018615;28;20032;-76
2022/06/27 12:08:03;;;;;;;1.50;1.40;;;28.70;95.10;;;;;;5012954;28;20033;-76
2022/06/27 12:11:16;;;;;;;1.85;1.13;;;29.20;94.20;;;;;;5022560;28;20300;-76
2022/06/27 12:13:33;;;;;;;2.53;1.17;;;29.60;91.80;;;;;;5036641;28;20094;-76
2022/06/27 12:16:03;;;;;;;3.13;1.33;;;29.70;91.40;;;;;;5015642;28;20030;-76
2022/06/27 12:18:32;;;;;;;1.50;1.10;;;29.50;90.60;;;;;;5016756;28;20033;-76
2022/06/27 12:20:58;;;;;;;1.70;1.40;;;29.40;90.80;;;;;;5023982;28;20067;-76
2022/06/27 12:23:23;;;;;;;1.23;1.10;;;29.50;91.00;;;;;;5022744;28;20219;-76
2022/06/27 12:25:49;;;;;;;1.30;1.20;;;29.40;90.80;;;;;;5017669;28;20064;-76
2022/06/27 12:28:14;;;;;;;2.13;1.27;;;29.40;90.50;;;;;;5032327;28;20033;-75
2022/06/27 12:30:40;;;;;;;1.45;1.08;;;29.40;90.50;;;;;;5025934;28;20080;-76
2022/06/27 12:33:06;;;;;;;3.50;1.10;;;29.40;93.00;;;;;;5016945;28;20447;-76
2022/06/27 12:35:32;;;;;;;1.65;1.10;;;29.40;94.30;;;;;;5015336;28;20037;-76
2022/06/27 12:38:02;;;;;;;1.00;0.82;;;29.20;90.40;;;;;;5026033;28;20029;-76
2022/06/27 12:40:29;;;;;;;2.22;1.00;;;29.10;90.90;;;;;;5027285;28;20049;-75
2022/06/27 12:42:54;;;;;;;1.08;0.68;;;29.20;90.70;;;;;;5024172;28;20032;-75
2022/06/27 12:45:20;;;;;;;2.65;0.80;;;29.30;90.40;;;;;;5028603;28;20025;-76
2022/06/27 12:47:46;;;;;;;1.58;0.80;;;29.30;89.30;;;;;;5016308;28;20553;-75
2022/06/27 12:50:12;;;;;;;3.35;0.93;;;29.20;88.70;;;;;;5024467;28;20125;-76
2022/06/27 12:52:38;;;;;;;0.80;0.70;;;29.20;89.80;;;;;;5028234;28;20435;-75
2022/06/27 12:55:04;;;;;;;1.65;0.68;;;29.10;88.40;;;;;;5027461;28;20174;-75
2022/06/27 12:57:30;;;;;;;4.32;0.65;;;28.80;90.00;;;;;;5024463;28;20490;-75
2022/06/27 12:59:55;;;;;;;1.25;0.70;;;28.70;90.30;;;;;;5026121;28;20034;-76